Time;durP1;ratioP1;P1;durP2;ratioP2;P2;SDS_P1;SDS_P2;PMS_P1;PMS_P2;Temp;Humidity;BMP_temperature;BMP_pressure;BME280_temperature;BME280_humidity;BME280_pressure;Samples;Min_cycle;Max_cycle;Signal;HPM_P1;HPM_P2
2021/01/04 00:01:51;;;;;;;39.70;21.90;;;;;;;1.65;85.67;100251.52;124227;1146;22809;-67
2021/01/04 00:04:44;;;;;;;59.15;26.60;;;;;;;1.64;85.93;100244.48;124097;1146;22668;-68
2021/01/04 00:07:36;;;;;;;56.17;24.13;;;;;;;1.64;85.27;100237.25;124364;1147;23334;-67
2021/01/04 00:10:22;;;;;;;61.23;25.60;;;;;;;1.64;86.25;100237.25;124241;1147;22755;-67
2021/01/04 00:13:11;;;;;;;42.27;21.73;;;;;;;1.64;85.58;100245.31;124407;1146;22681;-67
2021/01/04 00:15:44;;;;;;;42.00;20.90;;;;;;;1.64;85.70;100245.31;124223;1146;22770;-67
2021/01/04 00:18:33;;;;;;;41.83;19.33;;;;;;;1.66;85.96;100237.91;124164;1148;23759;-67
2021/01/04 00:21:03;;;;;;;42.33;21.30;;;;;;;1.67;86.37;100233.37;124260;1148;22754;-67
2021/01/04 00:23:31;;;;;;;38.65;18.75;;;;;;;1.60;85.62;100224.37;124172;1147;22731;-67
2021/01/04 00:26:06;;;;;;;56.55;24.15;;;;;;;1.67;86.81;100234.21;124323;1146;26892;-67
2021/01/04 00:28:35;;;;;;;42.95;20.50;;;;;;;1.69;85.58;100236.72;124133;1147;22745;-67
2021/01/04 00:31:02;;;;;;;49.43;23.40;;;;;;;1.68;86.15;100235.88;123909;1147;22744;-67
2021/01/04 00:33:48;;;;;;;41.13;19.97;;;;;;;1.69;86.36;100232.18;124309;1146;22662;-67
2021/01/04 00:36:31;;;;;;;43.93;19.20;;;;;;;1.70;85.92;100238.39;124163;1148;24058;-68
2021/01/04 00:39:13;;;;;;;47.20;21.73;;;;;;;1.69;86.45;100234.87;124048;1148;22757;-67
2021/01/04 00:42:00;;;;;;;44.07;21.17;;;;;;;1.72;85.87;100229.14;124329;1148;22746;-67
2021/01/04 00:44:52;;;;;;;38.15;18.62;;;;;;;1.73;85.87;100230.77;124093;1145;22759;-67
2021/01/04 00:47:38;;;;;;;46.00;20.30;;;;;;;1.75;86.33;100230.59;120358;1148;23008;-67
2021/01/04 00:50:40;;;;;;;34.20;17.05;;;;;;;1.76;86.15;100232.27;124035;1149;22782;-67
2021/01/04 00:53:29;;;;;;;34.93;17.97;;;;;;;1.78;86.12;100246.35;124146;1148;23336;-67
2021/01/04 00:56:14;;;;;;;40.55;19.70;;;;;;;1.80;85.84;100251.55;124107;1148;23121;-67
2021/01/04 00:59:05;;;;;;;60.03;26.17;;;;;;;1.84;86.17;100247.48;124277;1148;23957;-67
2021/01/04 01:01:47;;;;;;;42.60;21.63;;;;;;;1.86;85.62;100240.91;124101;1148;22676;-67
2021/01/04 01:04:38;;;;;;;36.25;19.45;;;;;;;1.87;85.77;100244.44;124101;1148;23358;-67
2021/01/04 01:07:23;;;;;;;31.80;18.03;;;;;;;1.86;86.29;100245.45;124070;1149;23255;-67
2021/01/04 01:09:53;;;;;;;46.40;20.70;;;;;;;1.86;85.38;100258.89;124075;1148;22680;-68
2021/01/04 01:12:36;;;;;;;28.80;16.90;;;;;;;1.84;86.08;100242.11;124060;1148;22903;-68
2021/01/04 01:15:11;;;;;;;31.30;17.45;;;;;;;1.83;85.93;100238.59;124153;1148;22703;-68
2021/01/04 01:18:16;;;;;;;58.97;25.90;;;;;;;1.83;85.21;100241.27;124290;1145;22625;-67
2021/01/04 01:20:49;;;;;;;38.43;19.97;;;;;;;1.82;86.13;100242.30;123790;1151;22827;-67
2021/01/04 01:23:17;;;;;;;31.07;16.70;;;;;;;1.86;85.39;100226.64;123998;1151;23399;-67
2021/01/04 01:25:48;;;;;;;32.80;17.20;;;;;;;1.88;86.10;100227.27;123822;1152;22737;-67
2021/01/04 01:28:32;;;;;;;39.57;17.63;;;;;;;1.91;85.84;100235.80;123769;1151;22773;-67
2021/01/04 01:31:20;;;;;;;35.30;18.00;;;;;;;1.93;85.84;100227.55;124015;1151;22726;-67
2021/01/04 01:34:06;;;;;;;36.80;19.80;;;;;;;1.94;85.67;100229.23;124000;1151;22703;-67
2021/01/04 01:37:04;;;;;;;34.70;18.67;;;;;;;1.93;85.85;100232.93;123822;1151;23910;-67
2021/01/04 01:39:34;;;;;;;29.18;17.00;;;;;;;1.91;85.77;100227.73;123942;1151;22698;-67
2021/01/04 01:42:36;;;;;;;31.90;18.65;;;;;;;1.91;85.86;100226.91;123824;1151;22751;-67
2021/01/04 01:45:34;;;;;;;32.63;17.53;;;;;;;1.89;86.35;100221.71;123913;1151;23698;-67
2021/01/04 01:48:21;;;;;;;27.35;15.45;;;;;;;1.93;86.29;100232.93;123833;1151;22704;-67
2021/01/04 01:50:57;;;;;;;27.75;15.60;;;;;;;1.93;85.79;100238.30;123953;1151;23974;-67
2021/01/04 01:53:45;;;;;;;24.77;14.97;;;;;;;1.91;86.25;100237.66;123778;1152;22749;-67
2021/01/04 01:56:15;;;;;;;26.63;14.83;;;;;;;1.92;86.20;100231.27;124044;1148;22822;-67
2021/01/04 01:59:03;;;;;;;25.73;15.47;;;;;;;1.94;86.50;100222.00;124183;1146;23370;-67
2021/01/04 02:02:09;;;;;;;27.93;16.37;;;;;;;1.97;85.97;100232.39;124418;1148;23465;-67
2021/01/04 02:05:26;;;;;;;79.47;32.53;;;;;;;1.97;85.76;100228.87;124115;1148;22737;-68
2021/01/04 02:08:00;;;;;;;33.40;18.05;;;;;;;1.97;85.69;100237.77;124018;1147;23714;-67
2021/01/04 02:10:31;;;;;;;28.60;16.90;;;;;;;1.95;86.10;100220.15;124223;1148;22652;-67
2021/01/04 02:13:18;;;;;;;30.83;17.43;;;;;;;1.95;85.65;100220.15;124171;1147;22693;-67
2021/01/04 02:15:49;;;;;;;28.37;16.17;;;;;;;1.95;85.70;100217.46;123144;1148;22973;-67
2021/01/04 02:18:31;;;;;;;25.20;15.50;;;;;;;1.95;85.91;100217.46;124119;1145;24279;-67
2021/01/04 02:21:20;;;;;;;27.87;14.77;;;;;;;1.95;85.70;100220.15;124372;1146;23457;-67
2021/01/04 02:24:06;;;;;;;25.87;14.43;;;;;;;1.96;85.59;100213.76;124199;1146;22695;-67
2021/01/04 02:26:34;;;;;;;24.40;13.80;;;;;;;1.96;85.97;100217.28;124510;1146;22706;-67
2021/01/04 02:29:02;;;;;;;24.10;14.17;;;;;;;1.93;85.66;100217.64;124235;1146;22666;-67
2021/01/04 02:31:30;;;;;;;27.40;15.13;;;;;;;1.94;85.78;100218.48;124528;1146;22671;-67
2021/01/04 02:33:58;;;;;;;25.30;14.70;;;;;;;1.95;86.07;100226.36;124236;1145;23935;-67
2021/01/04 02:36:25;;;;;;;25.20;15.33;;;;;;;1.97;85.95;100226.17;124325;1146;22662;-67
2021/01/04 02:39:00;;;;;;;23.05;14.85;;;;;;;1.96;85.79;100227.19;124205;1145;22679;-67
2021/01/04 02:42:02;;;;;;;27.00;14.20;;;;;;;1.98;85.55;100233.22;124317;1146;22829;-67
2021/01/04 02:44:29;;;;;;;25.10;13.53;;;;;;;1.99;85.83;100240.27;124000;1146;22737;-67
2021/01/04 02:47:15;;;;;;;22.33;13.30;;;;;;;1.99;86.10;100232.20;124518;1146;23577;-67
2021/01/04 02:50:10;;;;;;;20.87;12.73;;;;;;;2.01;85.72;100235.55;124288;1146;22782;-67
2021/01/04 02:53:03;;;;;;;20.45;12.15;;;;;;;2.03;86.15;100241.55;124547;1146;22685;-67
2021/01/04 02:55:45;;;;;;;20.35;13.40;;;;;;;2.05;85.93;100242.20;123709;1146;22949;-67
2021/01/04 02:58:41;;;;;;;21.85;13.70;;;;;;;2.06;86.34;100225.89;120311;1147;26070;-67
2021/01/04 03:01:19;;;;;;;20.93;12.97;;;;;;;2.06;85.66;100230.43;124350;1146;22771;-67
2021/01/04 03:03:46;;;;;;;24.92;13.40;;;;;;;2.07;86.18;100234.79;124271;1146;22793;-67
2021/01/04 03:06:18;;;;;;;25.07;13.93;;;;;;;2.05;86.39;100231.45;124211;1146;22769;-67
2021/01/04 03:08:45;;;;;;;26.30;14.60;;;;;;;2.06;85.80;100239.33;124349;1147;23847;-67
2021/01/04 03:11:14;;;;;;;22.23;13.97;;;;;;;2.05;85.89;100234.97;124249;1146;22682;-67
2021/01/04 03:13:55;;;;;;;25.50;13.93;;;;;;;2.06;86.04;100239.33;124524;1146;22685;-67
2021/01/04 03:16:37;;;;;;;20.90;14.10;;;;;;;2.06;85.92;100236.64;124234;1146;22736;-67
2021/01/04 03:19:13;;;;;;;20.33;12.47;;;;;;;2.08;85.71;100237.30;124481;1147;23277;-67
2021/01/04 03:21:40;;;;;;;21.40;12.83;;;;;;;2.09;86.01;100238.96;124215;1147;22674;-67
2021/01/04 03:24:10;;;;;;;20.00;12.23;;;;;;;2.11;86.00;100238.78;124453;1146;22718;-67
2021/01/04 03:26:48;;;;;;;21.50;12.77;;;;;;;2.09;86.52;100228.22;124335;1146;22684;-67
2021/01/04 03:29:15;;;;;;;20.60;12.10;;;;;;;2.10;86.42;100227.19;124304;1147;22675;-67
2021/01/04 03:31:43;;;;;;;21.80;12.35;;;;;;;2.11;85.33;100231.55;124313;1146;22678;-67
2021/01/04 03:34:10;;;;;;;22.65;12.90;;;;;;;2.13;86.14;100236.74;124376;1146;23414;-67
2021/01/04 03:36:37;;;;;;;23.63;14.37;;;;;;;2.14;85.73;100235.73;124372;1146;22752;-67
2021/01/04 03:39:05;;;;;;;21.17;12.87;;;;;;;2.12;85.47;100230.53;124447;1146;22667;-67
2021/01/04 03:41:32;;;;;;;25.80;14.65;;;;;;;2.12;86.61;100219.78;124352;1146;22826;-67
2021/01/04 03:43:59;;;;;;;25.45;13.55;;;;;;;2.12;86.59;100217.09;124437;1146;22696;-67
2021/01/04 03:46:27;;;;;;;24.60;13.97;;;;;;;2.12;86.33;100216.26;124190;1147;22643;-67
2021/01/04 03:48:56;;;;;;;23.53;13.87;;;;;;;2.13;85.68;100210.70;124381;1146;22681;-67
2021/01/04 03:51:24;;;;;;;22.57;12.83;;;;;;;2.13;85.77;100204.49;124442;1146;24895;-67
2021/01/04 03:53:51;;;;;;;24.17;14.03;;;;;;;2.11;86.04;100210.05;124350;1146;23123;-67
2021/01/04 03:56:20;;;;;;;24.67;13.43;;;;;;;2.13;86.15;100208.02;122282;1146;23423;-67
2021/01/04 03:58:48;;;;;;;22.25;13.20;;;;;;;2.16;86.26;100216.73;124198;1146;22640;-67
2021/01/04 04:01:15;;;;;;;21.60;13.70;;;;;;;2.18;86.17;100220.88;124484;1145;22735;-67
2021/01/04 04:03:43;;;;;;;21.60;13.77;;;;;;;2.20;86.16;100212.63;124275;1147;22935;-69
2021/01/04 04:06:11;;;;;;;20.65;11.70;;;;;;;2.21;86.08;100204.38;124452;1146;22676;-67
2021/01/04 04:08:40;;;;;;;23.70;13.80;;;;;;;2.20;86.23;100205.39;124425;1146;22756;-67
2021/01/04 04:11:07;;;;;;;24.70;14.75;;;;;;;2.21;86.11;100211.61;124420;1146;22688;-67
2021/01/04 04:13:35;;;;;;;24.57;14.10;;;;;;;2.21;86.25;100200.85;124212;1146;23351;-67
2021/01/04 04:16:02;;;;;;;25.00;14.33;;;;;;;2.24;86.44;100200.48;124473;1146;22663;-67
2021/01/04 04:18:30;;;;;;;21.40;12.75;;;;;;;2.24;85.86;100206.70;124381;1145;22672;-67
2021/01/04 04:20:58;;;;;;;22.63;13.10;;;;;;;2.24;86.32;100197.80;124380;1146;23758;-67
2021/01/04 04:23:25;;;;;;;22.97;12.90;;;;;;;2.25;86.48;100197.61;124263;1146;22813;-67
2021/01/04 04:25:53;;;;;;;24.00;14.20;;;;;;;2.26;86.37;100206.52;123101;1146;22894;-67
2021/01/04 04:28:21;;;;;;;32.45;15.95;;;;;;;2.28;86.18;100201.78;124277;1146;22675;-67
2021/01/04 04:30:48;;;;;;;31.77;16.57;;;;;;;2.29;86.31;100203.45;124569;1146;23294;-67
2021/01/04 04:33:15;;;;;;;45.17;23.67;;;;;;;2.29;86.55;100200.77;124301;1146;22662;-67
2021/01/04 04:35:43;;;;;;;40.70;21.75;;;;;;;2.29;86.64;100200.77;124369;1145;22750;-67
2021/01/04 04:38:10;;;;;;;35.57;20.77;;;;;;;2.26;85.76;100196.59;124336;1146;22876;-67
2021/01/04 04:40:37;;;;;;;26.73;15.37;;;;;;;2.28;86.77;100205.31;124266;1146;22682;-67
2021/01/04 04:43:16;;;;;;;26.27;15.77;;;;;;;2.29;86.50;100200.77;124482;1145;22884;-67
2021/01/04 04:45:43;;;;;;;22.30;13.37;;;;;;;2.27;86.60;100203.64;124258;1146;22710;-67
2021/01/04 04:48:49;;;;;;;21.63;12.53;;;;;;;2.26;85.87;100199.28;124441;1147;23815;-67
2021/01/04 04:51:40;;;;;;;20.93;12.97;;;;;;;2.25;86.33;100191.41;124442;1147;23547;-67
2021/01/04 04:54:28;;;;;;;21.47;11.73;;;;;;;2.26;86.28;100191.22;124386;1146;24011;-67
2021/01/04 04:57:30;;;;;;;20.33;12.03;;;;;;;2.28;86.18;100191.86;124496;1146;22759;-67
2021/01/04 05:00:00;;;;;;;38.10;20.70;;;;;;;2.31;85.85;100186.09;124310;1146;22695;-67
2021/01/04 05:02:55;;;;;;;28.53;15.27;;;;;;;2.32;86.37;100185.06;124415;1146;23247;-67
2021/01/04 05:05:39;;;;;;;22.35;13.65;;;;;;;2.34;85.76;100187.57;124300;1147;22730;-67
2021/01/04 05:08:10;;;;;;;24.40;14.55;;;;;;;2.34;86.02;100176.81;124723;1143;22677;-68
2021/01/04 05:10:37;;;;;;;21.63;11.97;;;;;;;2.35;85.67;100179.32;124663;1142;22663;-67
2021/01/04 05:13:20;;;;;;;18.90;12.50;;;;;;;2.33;86.19;100191.28;124699;1144;22687;-68
2021/01/04 05:15:59;;;;;;;21.80;12.00;;;;;;;2.32;86.02;100190.45;124542;1143;22721;-67
2021/01/04 05:18:54;;;;;;;20.80;12.95;;;;;;;2.31;85.63;100190.66;124739;1142;22694;-67
2021/01/04 05:21:37;;;;;;;19.80;11.25;;;;;;;2.32;86.45;100190.45;124555;1142;22687;-68
2021/01/04 05:24:29;;;;;;;20.40;12.30;;;;;;;2.32;85.88;100194.98;124851;1143;22853;-66
2021/01/04 05:27:18;;;;;;;23.30;13.00;;;;;;;2.33;85.97;100186.73;124623;1143;22694;-67
2021/01/04 05:30:14;;;;;;;23.30;13.90;;;;;;;2.31;85.91;100179.91;124783;1143;23358;-66
2021/01/04 05:32:58;;;;;;;22.90;12.73;;;;;;;2.31;86.46;100191.47;124523;1143;22751;-67
2021/01/04 05:35:27;;;;;;;27.95;14.65;;;;;;;2.33;86.30;100194.80;124757;1143;22671;-66
2021/01/04 05:38:12;;;;;;;23.40;11.55;;;;;;;2.35;86.19;100200.83;124582;1142;22730;-67
2021/01/04 05:41:02;;;;;;;37.10;20.13;;;;;;;2.38;86.40;100202.31;124843;1143;22712;-67
2021/01/04 05:43:48;;;;;;;38.13;17.83;;;;;;;2.38;85.84;100208.53;124769;1143;22656;-67
2021/01/04 05:46:20;;;;;;;55.17;24.43;;;;;;;2.38;86.66;100213.91;124476;1143;23485;-67
2021/01/04 05:49:12;;;;;;;59.85;24.35;;;;;;;2.41;86.21;100204.63;124599;1143;22838;-67
2021/01/04 05:51:45;;;;;;;81.23;33.23;;;;;;;2.42;86.43;100206.30;124512;1143;22723;-67
2021/01/04 05:54:13;;;;;;;36.95;20.95;;;;;;;2.43;85.91;100208.81;124724;1142;23704;-67
2021/01/04 05:56:40;;;;;;;19.73;11.80;;;;;;;2.44;86.55;100207.79;124627;1144;22666;-67
2021/01/04 05:59:15;;;;;;;23.55;15.45;;;;;;;2.46;85.98;100212.95;124667;1144;22691;-67
2021/01/04 06:01:44;;;;;;;21.85;14.35;;;;;;;2.48;85.63;100222.50;124655;1143;23289;-67
2021/01/04 06:04:25;;;;;;;22.35;12.90;;;;;;;2.51;86.00;100209.70;124832;1143;22750;-67
2021/01/04 06:07:04;;;;;;;19.40;11.60;;;;;;;2.52;86.33;100216.75;124604;1143;22665;-67
2021/01/04 06:09:33;;;;;;;25.77;14.00;;;;;;;2.52;86.13;100211.38;124709;1143;23472;-67
2021/01/04 06:12:29;;;;;;;20.10;11.05;;;;;;;2.48;86.37;100206.37;124636;1143;22711;-67
2021/01/04 06:14:57;;;;;;;36.40;17.97;;;;;;;2.45;86.04;100204.05;124699;1143;22680;-67
2021/01/04 06:17:30;;;;;;;22.97;13.40;;;;;;;2.45;86.01;100211.31;124672;1143;22757;-67
2021/01/04 06:20:07;;;;;;;22.10;11.87;;;;;;;2.46;85.77;100207.57;124804;1142;22698;-67
2021/01/04 06:22:35;;;;;;;22.70;9.95;;;;;;;2.45;86.23;100220.19;124714;1143;22802;-67
2021/01/04 06:25:07;;;;;;;14.60;9.30;;;;;;;2.44;85.91;100226.61;124791;1142;22721;-67
2021/01/04 06:27:37;;;;;;;15.33;9.03;;;;;;;2.45;86.29;100222.88;124739;1142;23449;-67
2021/01/04 06:30:20;;;;;;;17.97;10.80;;;;;;;2.45;86.24;100214.80;124752;1144;22675;-67
2021/01/04 06:32:51;;;;;;;15.55;9.35;;;;;;;2.47;85.53;100218.14;124664;1143;22776;-67
2021/01/04 06:35:30;;;;;;;13.55;8.95;;;;;;;2.51;85.99;100221.30;124590;1143;23525;-66
2021/01/04 06:38:22;;;;;;;13.35;8.90;;;;;;;2.52;86.34;100224.83;124597;1143;23539;-67
2021/01/04 06:40:49;;;;;;;14.33;9.20;;;;;;;2.54;85.80;100225.47;124784;1142;22685;-67
2021/01/04 06:43:25;;;;;;;13.90;8.55;;;;;;;2.54;85.81;100231.69;124663;1142;22733;-67
2021/01/04 06:46:21;;;;;;;17.00;9.03;;;;;;;2.53;86.19;100235.39;124750;1143;22690;-67
2021/01/04 06:48:54;;;;;;;15.50;9.20;;;;;;;2.55;85.64;100244.11;124637;1142;22694;-67
2021/01/04 06:51:36;;;;;;;12.90;8.55;;;;;;;2.56;86.25;100244.95;124755;1143;23682;-67
2021/01/04 06:54:13;;;;;;;14.33;9.40;;;;;;;2.55;86.10;100244.11;124757;1143;22751;-67
2021/01/04 06:56:45;;;;;;;;;;;;;;;2.55;86.11;100243.28;124789;1144;22683;-67
2021/01/04 06:59:39;;;;;;;13.50;8.20;;;;;;;2.55;85.86;100243.28;124632;1143;21411;-67
2021/01/04 07:02:17;;;;;;;24.50;13.85;;;;;;;2.56;85.87;100240.41;124690;1143;23539;-67
2021/01/04 07:05:19;;;;;;;25.85;13.40;;;;;;;2.57;85.75;100234.01;124434;1142;22805;-67
2021/01/04 07:07:55;;;;;;;49.50;20.45;;;;;;;2.56;86.15;100232.33;124744;1143;22640;-67
2021/01/04 07:10:55;;;;;;;21.57;11.88;;;;;;;2.56;86.06;100221.58;124704;1143;22695;-67
2021/01/04 07:13:47;;;;;;;24.15;12.85;;;;;;;2.56;86.16;100218.05;124881;1142;23467;-67
2021/01/04 07:16:17;;;;;;;22.03;12.83;;;;;;;2.55;86.41;100219.91;124560;1143;22744;-64
2021/01/04 07:18:46;;;;;;;45.85;18.60;;;;;;;2.56;86.36;100221.58;124812;1143;22670;-64
2021/01/04 07:21:26;;;;;;;18.30;10.50;;;;;;;2.57;86.72;100215.17;124594;1143;23265;-64
2021/01/04 07:24:18;;;;;;;18.60;10.60;;;;;;;2.59;86.01;100221.20;124651;1143;22727;-64
2021/01/04 07:27:04;;;;;;;18.73;10.93;;;;;;;2.58;86.44;100216.84;124535;1143;24317;-64
2021/01/04 07:29:43;;;;;;;15.45;10.35;;;;;;;2.60;85.92;100228.22;124715;1143;22676;-65
2021/01/04 07:32:19;;;;;;;17.13;9.23;;;;;;;2.62;86.07;100228.03;124683;1143;22734;-64
2021/01/04 07:35:06;;;;;;;21.90;11.57;;;;;;;2.63;86.25;100235.09;124679;1143;22753;-65
2021/01/04 07:37:57;;;;;;;16.25;9.70;;;;;;;2.66;85.91;100232.02;124596;1143;23168;-64
2021/01/04 07:40:49;;;;;;;22.27;10.40;;;;;;;2.66;86.28;100216.72;124617;1143;22688;-64
2021/01/04 07:43:49;;;;;;;16.23;9.77;;;;;;;2.69;86.73;100224.41;124633;1144;22769;-64
2021/01/04 07:46:38;;;;;;;19.75;10.95;;;;;;;2.67;86.51;100213.01;124562;1143;23363;-64
2021/01/04 07:49:33;;;;;;;17.70;10.70;;;;;;;2.68;86.62;100217.36;124762;1143;22863;-64
2021/01/04 07:52:19;;;;;;;20.63;12.63;;;;;;;2.67;86.24;100217.55;124487;1142;22777;-64
2021/01/04 07:54:58;;;;;;;18.00;11.50;;;;;;;2.65;85.88;100223.12;124788;1143;22673;-63
2021/01/04 07:57:52;;;;;;;19.90;11.95;;;;;;;2.67;86.53;100215.70;124565;1143;23399;-63
2021/01/04 08:00:30;;;;;;;18.13;10.53;;;;;;;2.68;86.19;100216.53;124796;1142;22823;-63
2021/01/04 08:03:23;;;;;;;22.93;11.67;;;;;;;2.72;86.31;100220.52;124586;1143;22739;-63
2021/01/04 08:06:25;;;;;;;19.90;11.45;;;;;;;2.73;86.93;100217.64;124802;1142;22689;-64
2021/01/04 08:09:06;;;;;;;18.93;12.77;;;;;;;2.76;86.45;100233.37;124580;1143;22785;-63
2021/01/04 08:11:48;;;;;;;23.40;12.85;;;;;;;2.77;86.17;100244.98;124783;1142;22645;-64
2021/01/04 08:14:38;;;;;;;31.15;15.70;;;;;;;2.81;86.40;100246.27;124647;1143;22760;-65
2021/01/04 08:17:16;;;;;;;26.07;14.77;;;;;;;2.83;86.61;100247.75;124442;1143;22747;-63
2021/01/04 08:19:43;;;;;;;27.90;15.35;;;;;;;2.90;86.41;100253.19;124648;1144;22774;-65
2021/01/04 08:22:48;;;;;;;49.15;22.70;;;;;;;2.94;86.60;100250.97;124423;1143;22743;-64
2021/01/04 08:25:44;;;;;;;45.83;22.73;;;;;;;2.96;86.62;100251.61;124632;1143;22729;-64
2021/01/04 08:28:20;;;;;;;47.95;24.00;;;;;;;3.00;86.48;100256.43;124579;1143;22708;-65
2021/01/04 08:31:03;;;;;;;40.15;21.85;;;;;;;3.03;86.27;100242.56;124675;1143;22676;-64
2021/01/04 08:33:53;;;;;;;34.55;18.95;;;;;;;3.06;86.35;100246.73;124429;1143;22680;-65
2021/01/04 08:36:30;;;;;;;27.10;14.90;;;;;;;3.09;86.19;100246.36;124714;1142;22681;-65
2021/01/04 08:39:13;;;;;;;28.60;15.90;;;;;;;3.10;86.17;100251.55;124466;1142;23751;-62
2021/01/04 08:41:41;;;;;;;30.65;16.35;;;;;;;3.13;86.25;100239.58;124776;1143;22760;-64
2021/01/04 08:44:19;;;;;;;25.40;14.95;;;;;;;3.14;86.25;100249.32;124343;1143;22649;-63
2021/01/04 08:46:50;;;;;;;28.17;15.07;;;;;;;3.17;85.90;100243.56;124755;1143;23237;-64
2021/01/04 08:49:27;;;;;;;21.15;11.70;;;;;;;3.25;86.11;100250.66;124516;1143;22678;-63
2021/01/04 08:51:55;;;;;;;30.70;18.35;;;;;;;3.27;86.35;100241.37;124739;1143;22753;-64
2021/01/04 08:54:32;;;;;;;37.77;22.23;;;;;;;3.32;85.68;100232.72;124646;1143;22754;-64
2021/01/04 08:57:07;;;;;;;25.48;16.15;;;;;;;3.35;85.87;100232.30;124733;1142;22627;-64
2021/01/04 08:59:34;;;;;;;28.35;15.85;;;;;;;3.36;86.05;100234.81;124697;1143;22655;-64
2021/01/04 09:02:14;;;;;;;25.43;16.03;;;;;;;3.36;85.81;100233.97;124705;1144;22649;-64
2021/01/04 09:04:42;;;;;;;29.95;18.45;;;;;;;3.27;85.95;100219.83;124648;1142;23597;-64
2021/01/04 09:07:16;;;;;;;26.00;15.05;;;;;;;3.34;85.83;100238.72;124689;1142;22775;-64
2021/01/04 09:09:46;;;;;;;27.87;17.87;;;;;;;3.34;85.36;100244.94;124606;1143;22693;-64
2021/01/04 09:12:14;;;;;;;23.80;14.70;;;;;;;3.35;85.87;100237.69;124779;1142;22758;-64
2021/01/04 09:14:58;;;;;;;27.30;15.80;;;;;;;3.37;85.67;100230.26;124575;1143;22704;-64
2021/01/04 09:17:49;;;;;;;22.55;13.25;;;;;;;3.38;85.52;100223.84;124823;1144;22679;-64
2021/01/04 09:20:20;;;;;;;23.17;13.13;;;;;;;3.39;85.36;100233.59;124345;1142;22686;-64
2021/01/04 09:22:48;;;;;;;27.83;15.67;;;;;;;3.37;86.02;100228.40;124760;1142;22693;-64
2021/01/04 09:25:19;;;;;;;22.27;14.63;;;;;;;3.39;85.21;100225.52;124609;1142;22714;-64
2021/01/04 09:27:47;;;;;;;21.20;13.45;;;;;;;3.38;85.69;100230.06;124712;1143;22680;-64
2021/01/04 09:30:22;;;;;;;25.05;15.45;;;;;;;3.38;85.67;100224.68;124709;1143;22697;-64
2021/01/04 09:33:17;;;;;;;27.97;16.43;;;;;;;3.39;85.56;100220.13;124747;1143;22770;-64
2021/01/04 09:35:45;;;;;;;26.25;15.50;;;;;;;3.38;85.54;100226.54;124544;1142;22669;-64
2021/01/04 09:38:24;;;;;;;25.45;14.70;;;;;;;3.37;85.63;100224.88;124723;1143;22711;-64
2021/01/04 09:40:54;;;;;;;24.80;14.00;;;;;;;3.39;85.18;100214.73;124431;1143;22683;-64
2021/01/04 09:43:23;;;;;;;25.83;14.40;;;;;;;3.39;85.60;100218.27;124756;1143;23216;-64
2021/01/04 09:45:51;;;;;;;31.00;16.85;;;;;;;3.41;86.04;100221.61;124650;1143;22775;-65
2021/01/04 09:48:28;;;;;;;31.23;17.80;;;;;;;3.41;86.03;100218.91;124692;1143;22692;-64
2021/01/04 09:51:06;;;;;;;29.30;18.75;;;;;;;3.43;85.19;100213.33;124588;1144;23357;-64
2021/01/04 09:53:36;;;;;;;;;;;;;;;3.45;85.83;100213.97;124690;1143;22667;-64
2021/01/04 09:56:06;;;;;;;30.03;16.33;;;;;;;3.44;85.45;100217.70;124546;1144;21405;-65
2021/01/04 09:58:33;;;;;;;26.75;16.45;;;;;;;3.44;85.70;100212.31;124641;1143;22746;-64
2021/01/04 10:01:11;;;;;;;31.77;17.93;;;;;;;3.42;85.51;100211.66;124778;1143;23365;-65
2021/01/04 10:03:38;;;;;;;;;;;;;;;3.41;85.57;100210.00;124776;1142;22777;-65
2021/01/04 10:06:07;;;;;;;;;;;;;;;3.40;85.73;100205.63;124681;1143;22237;-64
2021/01/04 10:08:36;;;;;;;25.70;14.15;;;;;;;3.37;86.02;100209.55;124714;1143;21861;-64
2021/01/04 10:11:05;;;;;;;27.85;15.25;;;;;;;3.37;86.05;100209.55;124559;1143;22768;-64
2021/01/04 10:13:37;;;;;;;29.25;16.55;;;;;;;3.39;85.91;100209.35;124683;1143;23303;-64
2021/01/04 10:16:06;;;;;;;28.65;16.40;;;;;;;3.40;86.08;100208.33;124673;1143;22717;-65
2021/01/04 10:18:38;;;;;;;26.75;16.05;;;;;;;3.38;86.09;100194.22;124624;1143;23265;-64
2021/01/04 10:21:09;;;;;;;34.60;19.30;;;;;;;3.39;85.45;100204.80;124732;1143;23556;-64
2021/01/04 10:23:52;;;;;;;29.10;18.10;;;;;;;3.42;85.95;100204.42;124375;1143;22816;-64
2021/01/04 10:26:41;;;;;;;35.80;21.95;;;;;;;3.41;86.05;100191.97;124764;1143;23369;-64
2021/01/04 10:29:09;;;;;;;44.10;24.25;;;;;;;3.43;86.06;100194.48;124607;1143;22839;-64
2021/01/04 10:31:36;;;;;;;41.10;22.65;;;;;;;3.45;85.84;100195.95;124681;1143;22883;-64
2021/01/04 10:34:14;;;;;;;38.85;20.10;;;;;;;3.48;86.36;100190.15;124630;1143;22675;-64
2021/01/04 10:36:52;;;;;;;31.60;19.20;;;;;;;3.48;85.92;100195.54;124664;1143;22775;-65
2021/01/04 10:39:20;;;;;;;36.83;20.60;;;;;;;3.49;85.77;100193.67;124609;1143;22696;-64
2021/01/04 10:41:48;;;;;;;43.40;21.75;;;;;;;3.51;86.15;100202.40;124647;1143;23627;-64
2021/01/04 10:44:24;;;;;;;37.65;20.10;;;;;;;3.53;85.92;100200.34;124611;1143;23384;-64
2021/01/04 10:47:01;;;;;;;49.55;27.85;;;;;;;3.57;85.51;100204.33;124752;1142;22670;-65
2021/01/04 10:49:30;;;;;;;73.10;39.95;;;;;;;3.60;86.37;100203.94;124613;1142;22659;-65
2021/01/04 10:51:58;;;;;;;66.65;35.75;;;;;;;3.62;85.92;100211.80;124538;1142;23338;-64
2021/01/04 10:54:40;;;;;;;56.00;27.43;;;;;;;3.63;85.80;100202.69;124499;1143;22656;-65
2021/01/04 10:57:25;;;;;;;82.93;38.40;;;;;;;3.62;86.19;100203.72;124734;1143;22718;-65
2021/01/04 11:00:11;;;;;;;58.45;29.90;;;;;;;3.63;85.73;100208.91;124682;1142;23304;-64
2021/01/04 11:02:40;;;;;;;58.90;28.90;;;;;;;3.62;86.04;100204.55;124657;1143;22777;-64
2021/01/04 11:05:08;;;;;;;57.77;29.27;;;;;;;3.64;86.01;100207.89;124477;1144;22723;-64
2021/01/04 11:07:36;;;;;;;45.33;24.27;;;;;;;3.67;85.99;100203.97;124764;1143;22768;-64
2021/01/04 11:10:09;;;;;;;45.13;24.57;;;;;;;3.70;86.39;100206.28;124606;1142;22686;-65
2021/01/04 11:12:47;;;;;;;36.45;21.65;;;;;;;3.70;86.24;100209.81;124722;1143;22762;-65
2021/01/04 11:15:24;;;;;;;38.70;23.00;;;;;;;3.69;85.78;100194.67;124548;1143;22683;-65
2021/01/04 11:18:11;;;;;;;35.20;21.20;;;;;;;3.71;86.05;100203.39;124669;1142;22683;-65
2021/01/04 11:20:40;;;;;;;42.70;23.93;;;;;;;3.71;86.11;100203.39;124610;1144;22695;-65
2021/01/04 11:23:10;;;;;;;41.85;24.55;;;;;;;3.73;85.85;100205.89;124626;1143;23634;-65
2021/01/04 11:25:38;;;;;;;46.45;25.10;;;;;;;3.71;86.20;100200.70;124513;1144;22815;-65
2021/01/04 11:28:06;;;;;;;44.45;24.35;;;;;;;3.71;85.87;100191.78;124417;1144;22835;-65
2021/01/04 11:30:52;;;;;;;44.53;23.20;;;;;;;3.69;86.40;100197.36;124634;1144;22708;-65
2021/01/04 11:33:26;;;;;;;43.07;21.97;;;;;;;3.64;86.12;100186.33;124724;1144;22731;-65
2021/01/04 11:35:55;;;;;;;42.40;21.43;;;;;;;3.61;85.81;100185.91;124584;1144;22721;-63
2021/01/04 11:38:24;;;;;;;42.80;23.63;;;;;;;3.58;86.04;100176.36;124619;1143;22709;-63
2021/01/04 11:41:55;;;;;;;45.35;24.10;;;;;;;3.58;86.35;100167.44;120077;1147;26034;-63
2021/01/04 11:44:23;;;;;;;36.63;20.53;;;;;;;3.59;86.50;100169.94;124474;1147;22761;-64
2021/01/04 11:46:51;;;;;;;38.95;21.65;;;;;;;3.58;86.40;100170.97;124326;1146;22701;-64
2021/01/04 11:49:18;;;;;;;41.90;22.70;;;;;;;3.57;86.28;100174.69;124364;1146;22746;-64
2021/01/04 11:51:49;;;;;;;41.55;21.30;;;;;;;3.55;86.34;100177.58;124280;1145;22755;-64
2021/01/04 11:54:17;;;;;;;42.27;21.83;;;;;;;3.57;85.82;100171.16;124399;1146;22638;-65
2021/01/04 11:56:44;;;;;;;42.80;22.97;;;;;;;3.56;86.01;100178.41;124231;1145;23530;-65
2021/01/04 11:59:12;;;;;;;36.35;22.70;;;;;;;3.55;86.48;100177.58;124451;1146;22679;-65
2021/01/04 12:01:39;;;;;;;40.20;21.50;;;;;;;3.55;86.41;100191.05;124151;1147;22686;-65